createdAt,value
2023-02-24T00:00:32.647Z,91600.70
2023-02-24T00:03:13.250Z,91597.65
2023-02-24T00:05:44.568Z,91593.20
2023-02-24T00:08:12.994Z,91596.96
2023-02-24T00:10:41.686Z,91595.40
2023-02-24T00:13:12.230Z,91591.71
2023-02-24T00:15:40.712Z,91586.89
2023-02-24T00:18:09.714Z,91586.75
2023-02-24T00:20:37.893Z,91581.30
2023-02-24T00:23:06.115Z,91578.80
2023-02-24T00:25:34.363Z,91571.41
2023-02-24T00:28:02.721Z,91573.20
2023-02-24T00:30:33.277Z,91565.70
2023-02-24T00:33:02.759Z,91567.34
2023-02-24T00:35:32.559Z,91563.21
2023-02-24T00:38:00.995Z,91559.70
2023-02-24T00:40:30.972Z,91554.27
2023-02-24T00:43:01.098Z,91551.50
2023-02-24T00:45:31.154Z,91552.91
2023-02-24T00:47:59.475Z,91548.47
2023-02-24T00:50:27.831Z,91548.40
2023-02-24T00:52:56.041Z,91541.34
2023-02-24T00:55:24.460Z,91538.57
2023-02-24T00:57:54.616Z,91535.91
2023-02-24T01:00:23.555Z,91531.04
2023-02-24T01:02:52.964Z,91526.76
2023-02-24T01:05:21.700Z,91525.23
2023-02-24T01:07:49.949Z,91521.95
2023-02-24T01:10:18.507Z,91518.84
2023-02-24T01:12:50.070Z,91517.34
2023-02-24T01:15:21.399Z,91516.12
2023-02-24T01:17:49.755Z,91513.50
2023-02-24T01:20:20.827Z,91509.54
2023-02-24T01:22:53.497Z,91509.73
2023-02-24T01:25:22.604Z,91505.60
2023-02-24T01:27:50.955Z,91501.16
2023-02-24T01:30:19.250Z,91499.08
2023-02-24T01:32:47.929Z,91497.30
2023-02-24T01:35:16.853Z,91495.41
2023-02-24T01:37:45.883Z,91490.39
2023-02-24T01:40:26.466Z,91488.03
2023-02-24T01:42:55.002Z,91495.20
2023-02-24T01:45:29.097Z,91489.75
2023-02-24T01:48:03.004Z,91484.40
2023-02-24T01:50:35.862Z,91486.30
2023-02-24T01:53:06.719Z,91484.79
2023-02-24T01:55:43.568Z,91488.23
2023-02-24T01:58:22.468Z,91486.16
2023-02-24T02:00:51.934Z,91482.69
2023-02-24T02:03:35.352Z,91481.89
2023-02-24T02:06:08.628Z,91482.85
2023-02-24T02:08:40.555Z,91480.33
2023-02-24T02:11:12.757Z,91481.33
2023-02-24T02:13:44.778Z,91478.16
2023-02-24T02:16:36.425Z,91471.34
2023-02-24T02:19:26.236Z,91473.73
2023-02-24T02:22:17.637Z,91473.48
2023-02-24T02:24:58.136Z,91471.86
2023-02-24T02:27:45.523Z,91470.61
2023-02-24T02:30:35.593Z,91468.82
2023-02-24T02:33:04.989Z,91467.25
2023-02-24T02:35:40.907Z,91470.69
2023-02-24T02:38:18.078Z,91471.11
2023-02-24T02:40:58.704Z,91470.36
2023-02-24T02:43:38.109Z,91468.62
2023-02-24T02:46:10.578Z,91469.95
2023-02-24T02:48:59.984Z,91465.19
2023-02-24T02:51:38.923Z,91457.98
2023-02-24T02:54:10.433Z,91458.67
2023-02-24T02:56:47.576Z,91457.40
2023-02-24T02:59:22.687Z,91456.24
2023-02-24T03:01:55.835Z,91454.18
2023-02-24T03:04:26.701Z,91451.20
2023-02-24T03:07:02.451Z,91453.98
2023-02-24T03:09:36.314Z,91453.02
2023-02-24T03:12:10.185Z,91448.15
2023-02-24T03:14:43.050Z,91449.61
2023-02-24T03:17:17.535Z,91450.20
2023-02-24T03:19:50.007Z,91447.20
2023-02-24T03:22:30.256Z,91441.30
2023-02-24T03:25:00.153Z,91439.58
2023-02-24T03:27:45.421Z,91434.41
2023-02-24T03:30:22.591Z,91432.23
2023-02-24T03:33:41.144Z,91427.33
2023-02-24T03:36:09.671Z,91424.95
2023-02-24T03:38:38.731Z,91421.52
2023-02-24T03:41:11.628Z,91420.85
2023-02-24T03:43:45.156Z,91423.22
2023-02-24T03:46:19.511Z,91420.04
2023-02-24T03:49:10.065Z,91418.88
2023-02-24T03:51:39.324Z,91411.12
2023-02-24T03:54:43.836Z,91410.52
2023-02-24T03:57:28.504Z,91407.94
2023-02-24T04:00:34.305Z,91404.17
2023-02-24T04:03:09.715Z,91402.55
2023-02-24T04:06:05.155Z,91396.83
2023-02-24T04:08:45.941Z,91396.73
2023-02-24T04:11:25.225Z,91392.56
2023-02-24T04:14:08.214Z,91388.98
2023-02-24T04:16:48.409Z,91387.52
2023-02-24T04:19:20.472Z,91380.52
2023-02-24T04:21:51.364Z,91379.68
2023-02-24T04:24:30.602Z,91375.02
2023-02-24T04:27:01.883Z,91373.50
2023-02-24T04:29:38.235Z,91374.55
2023-02-24T04:32:10.237Z,91369.95
2023-02-24T04:34:40.442Z,91370.02
2023-02-24T04:37:09.419Z,91368.98
2023-02-24T04:39:38.665Z,91366.23
2023-02-24T04:42:11.031Z,91364.16
2023-02-24T04:44:39.189Z,91360.58
2023-02-24T04:47:07.435Z,91358.66
2023-02-24T04:49:35.682Z,91357.17
2023-02-24T04:52:03.879Z,91357.95
2023-02-24T04:54:32.974Z,91352.89
2023-02-24T04:57:01.200Z,91351.14
2023-02-24T04:59:29.690Z,91349.69
2023-02-24T05:02:01.631Z,91346.16
2023-02-24T05:04:36.081Z,91344.77
2023-02-24T05:07:04.791Z,91341.32
2023-02-24T05:09:33.402Z,91342.96
2023-02-24T05:12:01.699Z,91344.45
2023-02-24T05:14:31.230Z,91342.88
2023-02-24T05:17:00.689Z,91339.69
2023-02-24T05:19:47.727Z,91340.06
2023-02-24T05:22:17.820Z,91334.23
2023-02-24T05:24:48.249Z,91333.67
2023-02-24T05:27:17.623Z,91331.42
2023-02-24T05:29:46.199Z,91329.45
2023-02-24T05:32:16.868Z,91328.22
2023-02-24T05:34:45.362Z,91330.69
2023-02-24T05:37:16.609Z,91327.73
2023-02-24T05:39:44.911Z,91325.06
2023-02-24T05:42:13.122Z,91324.36
2023-02-24T05:44:41.942Z,91323.30
2023-02-24T05:47:11.000Z,91322.19
2023-02-24T05:49:39.420Z,91321.67
2023-02-24T05:52:09.619Z,91320.55
2023-02-24T05:54:41.487Z,91324.88
2023-02-24T05:57:12.632Z,91324.65
2023-02-24T05:59:41.991Z,91325.08
2023-02-24T06:02:13.891Z,91323.71
2023-02-24T06:04:51.453Z,91331.78
2023-02-24T06:07:25.024Z,91334.48
2023-02-24T06:09:58.918Z,91334.34
2023-02-24T06:12:33.829Z,91334.95
2023-02-24T06:15:07.904Z,91331.32
2023-02-24T06:17:36.534Z,91331.66
2023-02-24T06:20:15.827Z,91332.46
2023-02-24T06:22:44.270Z,91328.89
2023-02-24T06:25:13.063Z,91328.95
2023-02-24T06:27:43.296Z,91330.92
2023-02-24T06:30:12.400Z,91326.74
2023-02-24T06:32:40.775Z,91324.50
2023-02-24T06:35:09.674Z,91320.73
2023-02-24T06:37:39.678Z,91321.57
2023-02-24T06:40:17.890Z,91319.93
2023-02-24T06:42:56.473Z,91318.45
2023-02-24T06:45:26.473Z,91311.83
2023-02-24T06:47:54.722Z,91314.71
2023-02-24T06:50:23.613Z,91318.52
2023-02-24T06:53:00.922Z,91315.64
2023-02-24T06:55:29.743Z,91312.02
2023-02-24T06:58:04.369Z,91307.73
2023-02-24T07:00:38.667Z,91306.66
2023-02-24T07:03:20.951Z,91308.11
2023-02-24T07:05:54.443Z,91304.23
2023-02-24T07:08:27.450Z,91299.67
2023-02-24T07:10:56.249Z,91295.52
2023-02-24T07:13:25.906Z,91292.48
2023-02-24T07:15:55.095Z,91297.30
2023-02-24T07:18:23.303Z,91291.19
2023-02-24T07:20:51.889Z,91288.75
2023-02-24T07:23:21.600Z,91287.86
2023-02-24T07:25:50.447Z,91288.69
2023-02-24T07:28:19.337Z,91288.77
2023-02-24T07:30:47.570Z,91283.34
2023-02-24T07:33:15.900Z,91284.30
2023-02-24T07:35:44.096Z,91278.86
2023-02-24T07:38:17.179Z,91277.62
2023-02-24T07:40:47.058Z,91277.46
2023-02-24T07:43:16.157Z,91274.58
2023-02-24T07:45:47.661Z,91275.94
2023-02-24T07:48:16.007Z,91274.83
2023-02-24T07:50:44.250Z,91270.05
2023-02-24T07:53:12.429Z,91269.31
2023-02-24T07:55:40.723Z,91264.77
2023-02-24T07:58:10.814Z,91266.19
2023-02-24T08:00:58.963Z,91263.27
2023-02-24T08:03:30.410Z,91258.80
2023-02-24T08:06:15.817Z,91256.19
2023-02-24T08:08:59.814Z,91252.82
2023-02-24T08:11:35.905Z,91251.17
2023-02-24T08:14:11.074Z,91252.90
2023-02-24T08:16:50.487Z,91251.70
2023-02-24T08:19:21.165Z,91249.66
2023-02-24T08:21:52.464Z,91242.65
2023-02-24T08:24:30.190Z,91240.11
2023-02-24T08:27:07.203Z,91237.80
2023-02-24T08:29:40.472Z,91234.96
2023-02-24T08:32:10.553Z,91234.13
2023-02-24T08:34:39.314Z,91231.65
2023-02-24T08:37:07.630Z,91225.23
2023-02-24T08:39:36.597Z,91224.52
2023-02-24T08:42:04.950Z,91222.08
2023-02-24T08:44:35.254Z,91220.61
2023-02-24T08:47:05.588Z,91222.41
2023-02-24T08:49:33.983Z,91216.99
2023-02-24T08:52:02.590Z,91221.02
2023-02-24T08:54:32.228Z,91218.40
2023-02-24T08:57:18.662Z,91215.83
2023-02-24T08:59:57.856Z,91211.63
2023-02-24T09:02:29.576Z,91211.09
2023-02-24T09:05:03.820Z,91208.80
2023-02-24T09:07:36.948Z,91202.29
2023-02-24T09:10:18.106Z,91200.95
2023-02-24T09:12:49.266Z,91199.62
2023-02-24T09:15:17.555Z,91196.46
2023-02-24T09:17:46.273Z,91200.20
2023-02-24T09:20:39.751Z,91201.13
2023-02-24T09:23:08.820Z,91200.36
2023-02-24T09:25:45.900Z,91195.85
2023-02-24T09:28:18.952Z,91198.73
2023-02-24T09:30:59.217Z,91198.99
2023-02-24T09:33:30.169Z,91200.31
2023-02-24T09:36:10.188Z,91195.04
2023-02-24T09:39:02.309Z,91192.40
2023-02-24T09:41:54.637Z,91190.27
2023-02-24T09:44:28.700Z,91184.77
2023-02-24T09:47:31.524Z,91181.73
2023-02-24T09:51:03.437Z,91177.35
2023-02-24T09:53:49.585Z,91171.08
2023-02-24T09:56:27.627Z,91172.23
2023-02-24T09:59:10.509Z,91164.58
2023-02-24T10:01:43.205Z,91157.98
2023-02-24T10:04:36.396Z,91151.38
2023-02-24T10:07:11.035Z,91145.31
2023-02-24T10:10:02.124Z,91137.86
2023-02-24T10:12:40.378Z,91129.59
2023-02-24T10:15:19.140Z,91124.02
2023-02-24T10:17:55.650Z,91113.73
2023-02-24T10:20:39.923Z,91113.50
2023-02-24T10:23:36.137Z,91107.08
2023-02-24T10:26:34.866Z,91102.02
2023-02-24T10:29:22.725Z,91099.89
2023-02-24T10:31:58.013Z,91090.02
2023-02-24T10:34:31.981Z,91085.09
2023-02-24T10:37:22.612Z,91084.14
2023-02-24T10:40:10.221Z,91082.58
2023-02-24T10:42:46.109Z,91072.96
2023-02-24T10:45:18.884Z,91071.16
2023-02-24T10:47:59.016Z,91068.29
2023-02-24T10:50:32.571Z,91066.45
2023-02-24T10:53:08.698Z,91060.61
2023-02-24T10:55:45.964Z,91055.57
2023-02-24T10:59:09.952Z,91051.78
2023-02-24T11:01:43.204Z,91050.66
2023-02-24T11:04:33.484Z,91047.08
2023-02-24T11:07:09.987Z,91038.81
2023-02-24T11:09:52.844Z,91034.49
2023-02-24T11:12:43.016Z,91029.89
2023-02-24T11:15:42.293Z,91029.53
2023-02-24T11:18:26.307Z,91023.88
2023-02-24T11:20:59.701Z,91018.27
2023-02-24T11:23:30.653Z,91015.65
2023-02-24T11:26:23.849Z,91009.95
2023-02-24T11:29:17.683Z,91007.98
2023-02-24T11:32:18.555Z,91005.81
2023-02-24T11:34:49.800Z,91001.13
2023-02-24T11:37:43.389Z,90992.54
2023-02-24T11:40:23.913Z,90988.32
2023-02-24T11:43:01.614Z,90984.70
2023-02-24T11:45:51.505Z,90981.45
2023-02-24T11:48:43.188Z,90980.06
2023-02-24T11:51:21.001Z,90980.09
2023-02-24T11:53:58.445Z,90976.95
2023-02-24T11:56:44.260Z,90976.70
2023-02-24T11:59:31.214Z,90976.30
2023-02-24T12:02:19.482Z,90974.13
2023-02-24T12:05:09.228Z,90971.81
2023-02-24T12:07:42.692Z,90968.89
2023-02-24T12:10:19.227Z,90961.39
2023-02-24T12:13:14.119Z,90953.42
2023-02-24T12:16:14.922Z,90949.73
2023-02-24T12:18:59.320Z,90948.38
2023-02-24T12:21:34.263Z,90941.85
2023-02-24T12:24:08.520Z,90944.10
2023-02-24T12:26:53.130Z,90932.64
2023-02-24T12:29:24.066Z,90927.20
2023-02-24T12:32:07.993Z,90926.42
2023-02-24T12:35:00.791Z,90920.20
2023-02-24T12:38:17.050Z,90919.27
2023-02-24T12:41:04.670Z,90912.70
2023-02-24T12:43:37.562Z,90906.43
2023-02-24T12:46:09.421Z,90907.41
2023-02-24T12:49:02.315Z,90902.91
2023-02-24T12:52:09.710Z,90897.31
2023-02-24T12:54:53.498Z,90892.81
2023-02-24T12:57:50.954Z,90883.59
2023-02-24T13:00:41.563Z,90884.17
2023-02-24T13:03:25.522Z,90881.30
2023-02-24T13:06:25.962Z,90878.61
2023-02-24T13:09:13.887Z,90879.95
2023-02-24T13:12:05.036Z,90882.80
2023-02-24T13:14:36.125Z,90885.37
2023-02-24T13:17:27.160Z,90888.36
2023-02-24T13:19:56.304Z,90887.14
2023-02-24T13:22:33.207Z,90886.44
2023-02-24T13:25:19.977Z,90888.14
2023-02-24T13:28:03.075Z,90888.30
2023-02-24T13:30:44.603Z,90893.92
2023-02-24T13:33:18.957Z,90888.73
2023-02-24T13:35:53.051Z,90886.97
2023-02-24T13:38:37.050Z,90882.01
2023-02-24T13:41:21.738Z,90880.29
2023-02-24T13:44:03.567Z,90884.59
2023-02-24T13:46:53.536Z,90885.61
2023-02-24T13:49:39.968Z,90885.46
2023-02-24T13:52:16.990Z,90887.80
2023-02-24T13:55:01.241Z,90885.30
2023-02-24T13:57:38.700Z,90883.23
2023-02-24T14:00:22.039Z,90878.95
2023-02-24T14:02:53.268Z,90877.45
2023-02-24T14:05:35.287Z,90872.45
2023-02-24T14:08:05.160Z,90866.73
2023-02-24T14:10:36.323Z,90864.83
2023-02-24T14:13:14.246Z,90863.39
2023-02-24T14:15:45.933Z,90865.96
2023-02-24T14:18:32.168Z,90865.29
2023-02-24T14:21:00.496Z,90868.13
2023-02-24T14:23:32.380Z,90865.45
2023-02-24T14:26:14.027Z,90864.21
2023-02-24T14:28:42.531Z,90864.14
2023-02-24T14:31:16.148Z,90866.75
2023-02-24T14:33:46.017Z,90861.52
2023-02-24T14:36:19.032Z,90862.86
2023-02-24T14:38:47.427Z,90863.05
2023-02-24T14:41:24.583Z,90862.44
2023-02-24T14:43:53.591Z,90864.45
2023-02-24T14:46:22.538Z,90860.34
2023-02-24T14:48:56.286Z,90854.91
2023-02-24T14:51:36.460Z,90852.16
2023-02-24T14:54:12.542Z,90850.69
2023-02-24T14:56:41.658Z,90851.32
2023-02-24T14:59:22.901Z,90846.61
2023-02-24T15:01:55.005Z,90849.98
2023-02-24T15:04:40.146Z,90849.66
2023-02-24T15:07:20.073Z,90850.73
2023-02-24T15:09:50.088Z,90847.39
2023-02-24T15:12:32.054Z,90846.27
2023-02-24T15:15:22.805Z,90849.11
2023-02-24T15:17:55.914Z,90843.14
2023-02-24T15:20:27.255Z,90841.30
2023-02-24T15:22:57.552Z,90836.46
2023-02-24T15:25:44.843Z,90837.80
2023-02-24T15:28:31.410Z,90829.59
2023-02-24T15:31:10.558Z,90824.67
2023-02-24T15:33:42.719Z,90828.29
2023-02-24T15:36:22.551Z,90828.30
2023-02-24T15:39:01.018Z,90830.12
2023-02-24T15:41:46.854Z,90830.50
2023-02-24T15:44:32.320Z,90826.83
2023-02-24T15:47:12.941Z,90824.95
2023-02-24T15:49:41.162Z,90825.77
2023-02-24T15:52:11.166Z,90827.54
2023-02-24T15:54:42.435Z,90825.28
2023-02-24T15:57:14.975Z,90824.14
2023-02-24T15:59:44.311Z,90819.98
2023-02-24T16:02:21.451Z,90817.55
2023-02-24T16:04:51.818Z,90822.85
2023-02-24T16:07:29.164Z,90822.84
2023-02-24T16:09:59.339Z,90824.45
2023-02-24T16:12:35.505Z,90826.38
2023-02-24T16:15:07.004Z,90828.91
2023-02-24T16:17:40.822Z,90832.27
2023-02-24T16:20:16.283Z,90832.40
2023-02-24T16:22:44.483Z,90829.92
2023-02-24T16:25:16.937Z,90836.19
2023-02-24T16:27:45.247Z,90833.33
2023-02-24T16:30:22.428Z,90834.75
2023-02-24T16:32:51.123Z,90833.79
2023-02-24T16:35:19.887Z,90834.38
2023-02-24T16:37:48.714Z,90831.52
2023-02-24T16:40:24.261Z,90833.25
2023-02-24T16:42:53.039Z,90831.95
2023-02-24T16:45:22.636Z,90830.88
2023-02-24T16:47:50.852Z,90828.86
2023-02-24T16:50:24.244Z,90826.65
2023-02-24T16:52:52.490Z,90827.67
2023-02-24T16:55:20.677Z,90827.85
2023-02-24T16:57:48.968Z,90827.05
2023-02-24T17:00:17.940Z,90822.98
2023-02-24T17:02:46.216Z,90825.80
2023-02-24T17:05:21.645Z,90822.46
2023-02-24T17:07:51.378Z,90821.70
2023-02-24T17:10:20.900Z,90819.70
2023-02-24T17:12:49.250Z,90814.86
2023-02-24T17:15:21.065Z,90810.70
2023-02-24T17:17:49.892Z,90813.25
2023-02-24T17:20:20.299Z,90809.50
2023-02-24T17:22:48.651Z,90810.40
2023-02-24T17:25:19.038Z,90809.38
2023-02-24T17:27:47.389Z,90807.35
2023-02-24T17:30:19.068Z,90806.59
2023-02-24T17:32:47.346Z,90803.27
2023-02-24T17:35:15.657Z,90798.66
2023-02-24T17:37:43.950Z,90796.48
2023-02-24T17:40:12.733Z,90800.34
2023-02-24T17:42:42.010Z,90800.15
2023-02-24T17:45:11.805Z,90796.40
2023-02-24T17:47:41.219Z,90797.46
2023-02-24T17:50:11.813Z,90798.03
2023-02-24T17:52:40.639Z,90791.73
2023-02-24T17:55:09.703Z,90797.61
2023-02-24T17:57:39.802Z,90787.58
2023-02-24T18:00:10.936Z,90790.38
2023-02-24T18:02:41.982Z,90787.90
2023-02-24T18:05:10.514Z,90789.09
2023-02-24T18:07:38.902Z,90787.25
2023-02-24T18:10:08.063Z,90785.77
2023-02-24T18:12:36.436Z,90780.95
2023-02-24T18:15:09.181Z,90781.72
2023-02-24T18:17:38.893Z,90779.92
2023-02-24T18:20:08.787Z,90778.86
2023-02-24T18:22:37.427Z,90780.70
2023-02-24T18:25:06.461Z,90781.09
2023-02-24T18:27:34.905Z,90785.04
2023-02-24T18:30:03.776Z,90782.83
2023-02-24T18:32:32.316Z,90781.97
2023-02-24T18:35:00.709Z,90782.45
2023-02-24T18:37:28.932Z,90783.23
2023-02-24T18:39:57.249Z,90785.35
2023-02-24T18:42:25.849Z,90783.61
2023-02-24T18:44:54.027Z,90783.14
2023-02-24T18:47:22.356Z,90778.16
2023-02-24T18:49:50.503Z,90775.61
2023-02-24T18:52:18.712Z,90772.88
2023-02-24T18:54:48.670Z,90776.95
2023-02-24T18:57:16.964Z,90771.27
2023-02-24T18:59:51.223Z,90775.20
2023-02-24T19:02:19.515Z,90773.50
2023-02-24T19:04:47.736Z,90774.67
2023-02-24T19:07:16.044Z,90774.77
2023-02-24T19:09:47.891Z,90770.57
2023-02-24T19:12:17.295Z,90772.17
2023-02-24T19:14:45.655Z,90772.80
2023-02-24T19:17:13.985Z,90774.69
2023-02-24T19:19:43.712Z,90773.67
2023-02-24T19:22:12.311Z,90768.52
2023-02-24T19:24:40.632Z,90767.73
2023-02-24T19:27:09.511Z,90767.35
2023-02-24T19:29:37.711Z,90765.79
2023-02-24T19:32:06.078Z,90763.60
2023-02-24T19:34:34.474Z,90759.14
2023-02-24T19:37:02.693Z,90763.18
2023-02-24T19:39:30.941Z,90760.94
2023-02-24T19:41:59.137Z,90760.86
2023-02-24T19:44:27.324Z,90761.81
2023-02-24T19:46:56.241Z,90762.91
2023-02-24T19:49:24.972Z,90765.88
2023-02-24T19:51:59.209Z,90758.08
2023-02-24T19:54:29.078Z,90758.06
2023-02-24T19:56:58.378Z,90759.93
2023-02-24T19:59:26.756Z,90761.30
2023-02-24T20:01:55.138Z,90761.05
2023-02-24T20:04:24.032Z,90759.44
2023-02-24T20:06:52.358Z,90761.77
2023-02-24T20:09:21.505Z,90756.61
2023-02-24T20:11:51.329Z,90755.70
2023-02-24T20:14:20.501Z,90756.25
2023-02-24T20:16:48.822Z,90753.49
2023-02-24T20:19:18.292Z,90752.83
2023-02-24T20:21:47.601Z,90753.60
2023-02-24T20:24:17.539Z,90750.20
2023-02-24T20:26:49.592Z,90746.92
2023-02-24T20:29:21.104Z,90742.83
2023-02-24T20:31:50.103Z,90737.10
2023-02-24T20:34:18.520Z,90735.45
2023-02-24T20:36:46.802Z,90729.89
2023-02-24T20:39:15.190Z,90729.15
2023-02-24T20:41:43.920Z,90725.61
2023-02-24T20:44:12.848Z,90722.63
2023-02-24T20:46:41.188Z,90719.45
2023-02-24T20:49:14.789Z,90711.44
2023-02-24T20:51:43.986Z,90715.42
2023-02-24T20:54:13.901Z,90713.46
2023-02-24T20:56:44.328Z,90711.95
2023-02-24T20:59:16.149Z,90714.69
2023-02-24T21:01:47.582Z,90710.23
2023-02-24T21:04:19.358Z,90708.02
2023-02-24T21:06:48.288Z,90707.52
2023-02-24T21:09:16.587Z,90705.70
2023-02-24T21:11:44.863Z,90701.74
2023-02-24T21:14:15.723Z,90696.35
2023-02-24T21:16:46.184Z,90693.11
2023-02-24T21:19:14.698Z,90689.23
2023-02-24T21:21:42.985Z,90688.17
2023-02-24T21:24:11.239Z,90688.15
2023-02-24T21:26:39.532Z,90691.35
2023-02-24T21:29:07.879Z,90686.89
2023-02-24T21:31:36.243Z,90683.80
2023-02-24T21:34:04.737Z,90681.00
2023-02-24T21:36:33.071Z,90675.61
2023-02-24T21:39:01.274Z,90672.41
2023-02-24T21:41:29.544Z,90670.35
2023-02-24T21:44:00.776Z,90669.85
2023-02-24T21:46:29.153Z,90668.58
2023-02-24T21:48:58.642Z,90668.11
2023-02-24T21:51:29.259Z,90669.95
2023-02-24T21:53:58.019Z,90664.11
2023-02-24T21:56:28.735Z,90660.56
2023-02-24T21:59:00.648Z,90661.93
2023-02-24T22:01:34.905Z,90658.98
2023-02-24T22:04:06.489Z,90655.83
2023-02-24T22:06:37.482Z,90658.73
2023-02-24T22:09:08.128Z,90655.45
2023-02-24T22:11:40.978Z,90653.51
2023-02-24T22:14:11.607Z,90652.52
2023-02-24T22:16:40.705Z,90645.42
2023-02-24T22:19:09.440Z,90643.06
2023-02-24T22:21:39.768Z,90632.39
2023-02-24T22:24:10.888Z,90630.34
2023-02-24T22:26:40.292Z,90630.03
2023-02-24T22:29:09.157Z,90632.92
2023-02-24T22:31:39.258Z,90625.49
2023-02-24T22:34:09.007Z,90623.59
2023-02-24T22:36:37.960Z,90629.86
2023-02-24T22:39:06.797Z,90629.69
2023-02-24T22:41:36.530Z,90632.69
2023-02-24T22:44:06.338Z,90635.13
2023-02-24T22:46:38.017Z,90634.16
2023-02-24T22:49:06.781Z,90622.06
2023-02-24T22:51:35.476Z,90619.66
2023-02-24T22:54:04.705Z,90614.05
2023-02-24T22:56:33.109Z,90613.90
2023-02-24T22:59:01.918Z,90612.54
2023-02-24T23:01:33.439Z,90608.75
2023-02-24T23:04:03.999Z,90605.15
2023-02-24T23:06:33.596Z,90604.08
2023-02-24T23:09:03.608Z,90598.21
2023-02-24T23:11:35.029Z,90594.04
2023-02-24T23:14:06.148Z,90593.71
2023-02-24T23:16:36.558Z,90583.23
2023-02-24T23:19:08.343Z,90585.43
2023-02-24T23:21:40.018Z,90578.57
2023-02-24T23:24:11.041Z,90582.16
2023-02-24T23:26:43.038Z,90582.71
2023-02-24T23:29:13.090Z,90575.65
2023-02-24T23:31:42.541Z,90573.81
2023-02-24T23:34:12.097Z,90564.57
2023-02-24T23:36:43.692Z,90558.98
2023-02-24T23:39:14.524Z,90557.73
2023-02-24T23:41:42.865Z,90557.95
2023-02-24T23:44:12.642Z,90557.69
2023-02-24T23:46:42.013Z,90561.47
2023-02-24T23:49:10.335Z,90559.40
2023-02-24T23:51:47.994Z,90548.80
2023-02-24T23:54:18.414Z,90546.02
2023-02-24T23:56:47.174Z,90549.20
2023-02-24T23:59:15.706Z,90548.33
